createdAt,value
2019-04-22T00:01:23.381Z,52.71
2019-04-22T00:03:55.213Z,52.75
2019-04-22T00:06:44.098Z,52.82
2019-04-22T00:09:17.425Z,52.87
2019-04-22T00:11:52.924Z,52.92
2019-04-22T00:14:13.103Z,52.94
2019-04-22T00:16:51.928Z,53.09
2019-04-22T00:21:55.983Z,53.40
2019-04-22T00:24:27.581Z,53.99
2019-04-22T00:27:00.287Z,53.99
2019-04-22T00:32:02.073Z,53.98
2019-04-22T00:34:40.882Z,54.16
2019-04-22T00:37:09.247Z,53.81
2019-04-22T00:39:46.550Z,53.78
2019-04-22T00:42:14.943Z,53.84
2019-04-22T00:44:51.881Z,54.24
2019-04-22T00:47:23.144Z,54.53
2019-04-22T00:52:21.776Z,55.13
2019-04-22T00:55:01.902Z,55.00
2019-04-22T00:57:27.866Z,54.91
2019-04-22T00:59:59.407Z,55.02
2019-04-22T01:02:27.709Z,55.10
2019-04-22T01:05:04.126Z,55.46
2019-04-22T01:07:30.476Z,55.66
2019-04-22T01:10:06.927Z,55.97
2019-04-22T01:12:31.911Z,56.08
2019-04-22T01:15:10.664Z,56.27
2019-04-22T01:17:40.154Z,56.42
2019-04-22T01:20:25.821Z,56.47
2019-04-22T01:22:38.957Z,56.75
2019-04-22T01:25:14.656Z,57.19
2019-04-22T01:27:41.812Z,57.15
2019-04-22T01:30:10.912Z,57.03
2019-04-22T01:32:35.037Z,56.97
2019-04-22T01:35:13.009Z,57.03
2019-04-22T01:37:52.524Z,57.10
2019-04-22T01:40:33.426Z,57.44
2019-04-22T01:43:03.819Z,57.33
2019-04-22T01:45:34.657Z,57.63
2019-04-22T01:48:02.907Z,57.76
2019-04-22T01:50:30.759Z,57.72
2019-04-22T01:53:10.624Z,58.03
2019-04-22T01:55:40.315Z,58.50
2019-04-22T01:58:08.758Z,58.79
2019-04-22T02:00:51.059Z,59.02
2019-04-22T02:03:17.851Z,59.26
2019-04-22T02:05:42.569Z,59.37
2019-04-22T02:08:25.506Z,59.48
2019-04-22T02:13:23.457Z,59.90
2019-04-22T02:15:58.691Z,59.93
2019-04-22T02:18:31.818Z,60.13
2019-04-22T02:21:03.279Z,60.05
2019-04-22T02:34:12.063Z,60.81
2019-04-22T02:36:30.160Z,61.08
2019-04-22T02:51:27.876Z,62.04
2019-04-22T03:01:47.421Z,62.47
2019-04-22T03:09:20.228Z,62.99
2019-04-22T03:17:11.333Z,63.95
2019-04-22T03:19:42.775Z,64.16
2019-04-22T03:21:57.768Z,64.07
2019-04-22T03:24:25.715Z,63.99
2019-04-22T03:26:59.615Z,64.09
2019-04-22T03:30:40.219Z,64.08
2019-04-22T03:35:30.424Z,64.01
2019-04-22T03:37:43.192Z,64.14
2019-04-22T03:42:48.514Z,64.40
2019-04-22T03:45:19.741Z,64.45
2019-04-22T03:47:41.489Z,64.69
2019-04-22T03:52:49.593Z,65.02
2019-04-22T03:55:37.416Z,65.67
2019-04-22T03:57:49.671Z,65.67
2019-04-22T04:03:01.060Z,65.57
2019-04-22T04:05:49.262Z,65.64
2019-04-22T04:15:53.090Z,66.69
2019-04-22T04:18:29.660Z,66.85
2019-04-22T04:20:56.248Z,66.92
2019-04-22T04:25:50.336Z,66.91
2019-04-22T04:30:48.649Z,67.01
2019-04-22T04:33:24.979Z,67.20
2019-04-22T04:38:32.124Z,67.50
2019-04-22T04:41:06.040Z,67.87
2019-04-22T04:51:15.990Z,67.65
2019-04-22T04:53:31.840Z,67.65
2019-04-22T04:56:30.383Z,67.86
2019-04-22T05:06:21.677Z,67.56
2019-04-22T05:13:59.210Z,67.63
2019-04-22T05:19:05.642Z,67.16
2019-04-22T05:21:42.181Z,67.19
2019-04-22T05:24:06.662Z,67.25
2019-04-22T05:26:34.231Z,67.25
2019-04-22T05:29:08.039Z,66.85
2019-04-22T05:34:05.536Z,66.53
2019-04-22T05:36:34.115Z,66.53
2019-04-22T05:39:08.293Z,66.30
2019-04-22T05:44:08.449Z,65.63
2019-04-22T05:46:47.561Z,65.63
2019-04-22T05:49:15.029Z,65.16
2019-04-22T05:51:56.771Z,65.04
2019-04-22T05:54:19.022Z,64.87
2019-04-22T05:56:55.100Z,64.06
2019-04-22T05:59:17.956Z,64.06
2019-04-22T06:01:57.498Z,63.94
2019-04-22T06:04:14.635Z,63.55
2019-04-22T06:06:46.849Z,63.47
2019-04-22T06:09:24.567Z,63.42
2019-04-22T06:11:52.006Z,62.75
2019-04-22T06:14:26.363Z,62.85
2019-04-22T06:19:31.536Z,61.68
2019-04-22T06:22:06.424Z,61.49
2019-04-22T06:24:49.414Z,61.10
2019-04-22T06:29:36.535Z,60.37
2019-04-22T06:32:23.922Z,59.84
2019-04-22T06:34:42.278Z,59.88
2019-04-22T06:37:17.491Z,59.66
2019-04-22T06:39:46.629Z,59.24
2019-04-22T06:42:21.915Z,59.00
2019-04-22T06:44:54.895Z,58.64
2019-04-22T06:47:41.968Z,58.11
2019-04-22T06:49:55.380Z,58.27
2019-04-22T06:52:28.153Z,57.38
2019-04-22T06:55:16.715Z,56.29
2019-04-22T06:57:34.757Z,56.00
2019-04-22T07:00:05.312Z,55.87
2019-04-22T07:02:47.130Z,55.42
2019-04-22T07:05:13.165Z,55.40
2019-04-22T07:07:49.805Z,54.91
2019-04-22T07:10:26.484Z,54.53
2019-04-22T07:13:01.459Z,55.25
2019-04-22T07:15:35.790Z,54.54
2019-04-22T07:17:50.547Z,54.54
2019-04-22T07:20:25.915Z,53.42
2019-04-22T07:22:51.360Z,53.95
2019-04-22T07:25:23.464Z,53.39
2019-04-22T07:28:01.104Z,53.26
2019-04-22T07:30:31.381Z,52.57
2019-04-22T07:35:48.909Z,52.51
2019-04-22T07:38:06.164Z,51.90
2019-04-22T07:40:40.043Z,51.35
2019-04-22T07:43:18.800Z,50.76
2019-04-22T07:45:44.033Z,50.04
2019-04-22T07:53:15.705Z,50.73
2019-04-22T07:55:46.777Z,49.86
2019-04-22T07:58:26.053Z,49.96
2019-04-22T08:00:55.947Z,50.54
2019-04-22T08:03:30.867Z,49.59
2019-04-22T08:06:05.450Z,49.97
2019-04-22T08:08:35.592Z,48.74
2019-04-22T08:11:11.699Z,48.36
2019-04-22T08:13:34.283Z,48.18
2019-04-22T08:16:10.101Z,46.82
2019-04-22T08:18:55.675Z,46.25
2019-04-22T08:21:13.583Z,46.29
2019-04-22T08:23:50.900Z,45.37
2019-04-22T08:26:24.560Z,44.91
2019-04-22T08:28:55.809Z,44.62
2019-04-22T08:31:31.601Z,44.56
2019-04-22T08:33:58.938Z,44.13
2019-04-22T08:39:04.828Z,43.32
2019-04-22T08:41:34.876Z,43.12
2019-04-22T08:49:16.063Z,42.83
2019-04-22T08:51:37.706Z,42.56
2019-04-22T08:56:43.971Z,42.83
2019-04-22T08:59:12.173Z,41.81
2019-04-22T09:01:40.755Z,41.73
2019-04-22T09:04:11.692Z,42.92
2019-04-22T09:07:10.497Z,41.76
2019-04-22T09:09:25.013Z,43.02
2019-04-22T09:11:54.837Z,43.02
2019-04-22T09:14:24.218Z,42.19
2019-04-22T09:16:48.212Z,42.01
2019-04-22T09:19:24.114Z,41.91
2019-04-22T09:22:03.481Z,41.05
2019-04-22T09:24:34.185Z,41.09
2019-04-22T09:27:07.778Z,41.67
2019-04-22T09:29:34.009Z,41.67
2019-04-22T09:32:11.338Z,40.53
2019-04-22T09:34:39.826Z,39.50
2019-04-22T09:37:21.062Z,39.50
2019-04-22T09:39:44.307Z,40.70
2019-04-22T09:42:09.125Z,40.92
2019-04-22T09:44:52.631Z,40.85
2019-04-22T09:47:12.842Z,39.53
2019-04-22T09:49:49.701Z,40.01
2019-04-22T09:52:15.055Z,40.11
2019-04-22T09:54:53.061Z,39.64
2019-04-22T09:57:21.211Z,38.84
2019-04-22T09:59:57.774Z,37.90
2019-04-22T10:02:25.009Z,38.40
2019-04-22T10:07:27.219Z,37.43
2019-04-22T10:10:03.298Z,37.86
2019-04-22T10:12:32.425Z,37.40
2019-04-22T10:15:14.991Z,37.74
2019-04-22T10:17:31.649Z,38.41
2019-04-22T10:20:05.573Z,37.75
2019-04-22T10:22:43.664Z,37.84
2019-04-22T10:25:04.898Z,38.18
2019-04-22T10:27:39.830Z,38.66
2019-04-22T10:30:08.808Z,38.28
2019-04-22T10:32:46.169Z,38.65
2019-04-22T10:35:08.206Z,38.38
2019-04-22T10:37:34.330Z,37.39
2019-04-22T10:40:08.241Z,37.88
2019-04-22T10:42:40.929Z,37.45
2019-04-22T10:45:12.386Z,38.46
2019-04-22T10:47:42.474Z,38.10
2019-04-22T10:50:14.464Z,38.44
2019-04-22T10:52:43.955Z,38.12
2019-04-22T10:55:13.886Z,37.70
2019-04-22T10:57:48.595Z,37.33
2019-04-22T11:00:19.592Z,37.32
2019-04-22T11:02:49.879Z,37.20
2019-04-22T11:05:22.002Z,37.12
2019-04-22T11:07:57.905Z,36.77
2019-04-22T11:10:36.874Z,36.60
2019-04-22T11:12:56.780Z,36.48
2019-04-22T11:15:26.671Z,35.98
2019-04-22T11:17:59.454Z,36.09
2019-04-22T11:20:29.324Z,36.08
2019-04-22T11:23:00.481Z,36.09
2019-04-22T11:25:31.947Z,34.74
2019-04-22T11:28:02.125Z,34.53
2019-04-22T11:30:34.377Z,34.24
2019-04-22T11:33:04.550Z,34.84
2019-04-22T11:35:34.893Z,35.40
2019-04-22T11:38:04.701Z,35.22
2019-04-22T11:40:41.738Z,34.75
2019-04-22T11:43:06.303Z,34.73
2019-04-22T11:45:37.370Z,35.08
2019-04-22T11:48:07.252Z,33.89
2019-04-22T11:50:42.153Z,32.84
2019-04-22T11:53:13.132Z,33.15
2019-04-22T11:55:42.838Z,33.72
2019-04-22T11:58:12.899Z,34.40
2019-04-22T12:00:43.132Z,33.49
2019-04-22T12:03:14.931Z,33.21
2019-04-22T12:05:45.848Z,32.77
2019-04-22T12:08:15.598Z,33.16
2019-04-22T12:10:51.626Z,33.30
2019-04-22T12:13:17.838Z,31.06
2019-04-22T12:15:49.108Z,31.62
2019-04-22T12:18:19.551Z,30.97
2019-04-22T12:20:50.682Z,30.69
2019-04-22T12:23:21.140Z,31.55
2019-04-22T12:26:00.929Z,31.88
2019-04-22T12:28:26.673Z,32.44
2019-04-22T12:30:57.396Z,32.40
2019-04-22T12:33:29.451Z,31.70
2019-04-22T12:36:00.357Z,30.94
2019-04-22T12:38:31.525Z,31.94
2019-04-22T12:41:05.935Z,31.90
2019-04-22T12:43:33.675Z,31.90
2019-04-22T12:46:05.849Z,30.81
2019-04-22T12:48:37.166Z,30.28
2019-04-22T12:51:07.119Z,30.87
2019-04-22T12:53:38.055Z,30.08
2019-04-22T12:56:12.701Z,30.37
2019-04-22T12:58:43.377Z,30.01
2019-04-22T13:01:13.103Z,30.50
2019-04-22T13:03:44.490Z,30.16
2019-04-22T13:06:14.340Z,30.53
2019-04-22T13:08:43.726Z,30.91
2019-04-22T13:11:17.963Z,30.54
2019-04-22T13:13:45.125Z,30.69
2019-04-22T13:16:15.439Z,30.48
2019-04-22T13:18:53.715Z,31.18
2019-04-22T13:21:18.562Z,30.27
2019-04-22T13:23:48.873Z,30.51
2019-04-22T13:26:18.980Z,30.44
2019-04-22T13:28:49.252Z,30.13
2019-04-22T13:31:24.432Z,29.05
2019-04-22T13:33:57.237Z,29.20
2019-04-22T13:36:27.700Z,29.90
2019-04-22T13:38:56.633Z,28.76
2019-04-22T13:41:33.909Z,28.86
2019-04-22T13:43:58.105Z,29.75
2019-04-22T13:46:31.384Z,30.08
2019-04-22T13:49:25.580Z,30.08
2019-04-22T13:56:55.099Z,30.80
2019-04-22T13:59:17.314Z,30.47
2019-04-22T14:01:38.528Z,30.16
2019-04-22T14:04:14.315Z,30.46
2019-04-22T14:06:44.876Z,30.28
2019-04-22T14:09:17.202Z,29.82
2019-04-22T14:11:52.859Z,29.47
2019-04-22T14:14:20.016Z,29.84
2019-04-22T14:16:51.364Z,30.43
2019-04-22T14:19:20.727Z,31.44
2019-04-22T14:21:51.583Z,31.35
2019-04-22T14:24:21.763Z,31.42
2019-04-22T14:27:08.765Z,31.74
2019-04-22T14:29:26.194Z,31.94
2019-04-22T14:32:05.456Z,32.48
2019-04-22T14:34:28.529Z,32.31
2019-04-22T14:36:59.425Z,32.53
2019-04-22T14:39:30.344Z,32.26
2019-04-22T14:42:21.679Z,32.66
2019-04-22T14:47:45.669Z,32.73
2019-04-22T14:49:58.921Z,33.26
2019-04-22T14:52:46.027Z,33.53
2019-04-22T14:54:51.635Z,33.14
2019-04-22T14:57:10.827Z,32.58
2019-04-22T14:59:41.696Z,32.43
2019-04-22T15:02:13.959Z,32.51
2019-04-22T15:04:45.907Z,31.61
2019-04-22T15:07:16.831Z,31.48
2019-04-22T15:09:48.046Z,32.31
2019-04-22T15:12:27.830Z,32.55
2019-04-22T15:14:51.162Z,32.64
2019-04-22T15:17:22.873Z,32.63
2019-04-22T15:19:54.306Z,33.30
2019-04-22T15:22:23.740Z,32.23
2019-04-22T15:24:54.474Z,32.49
2019-04-22T15:27:26.134Z,30.98
2019-04-22T15:29:54.946Z,31.04
2019-04-22T15:32:25.267Z,31.65
2019-04-22T15:34:55.520Z,31.35
2019-04-22T15:37:26.457Z,31.00
2019-04-22T15:39:57.207Z,30.97
2019-04-22T15:42:33.313Z,30.75
2019-04-22T15:45:00.053Z,30.49
2019-04-22T15:47:31.468Z,29.51
2019-04-22T15:50:01.119Z,28.65
2019-04-22T15:52:43.657Z,28.32
2019-04-22T15:55:04.938Z,28.99
2019-04-22T15:57:37.913Z,27.96
2019-04-22T16:00:22.801Z,28.00
2019-04-22T16:02:41.447Z,28.48
2019-04-22T16:05:10.922Z,29.03
2019-04-22T16:07:42.061Z,29.35
2019-04-22T16:10:15.428Z,29.12
2019-04-22T16:12:56.482Z,29.65
2019-04-22T16:15:16.604Z,29.96
2019-04-22T16:17:46.882Z,30.15
2019-04-22T16:20:17.398Z,30.22
2019-04-22T16:23:05.584Z,29.63
2019-04-22T16:25:49.623Z,30.26
2019-04-22T16:28:19.531Z,30.29
2019-04-22T16:30:49.127Z,30.68
2019-04-22T16:33:19.357Z,30.68
2019-04-22T16:35:49.091Z,30.86
2019-04-22T16:38:19.655Z,31.31
2019-04-22T16:40:50.435Z,31.26
2019-04-22T16:43:22.511Z,31.85
2019-04-22T16:45:51.988Z,31.79
2019-04-22T16:48:21.957Z,31.42
2019-04-22T16:50:55.016Z,31.49
2019-04-22T16:53:25.263Z,31.67
2019-04-22T16:55:54.971Z,31.90
2019-04-22T16:58:25.134Z,32.12
2019-04-22T17:00:56.516Z,32.27
2019-04-22T17:03:30.819Z,32.00
2019-04-22T17:06:11.643Z,32.24
2019-04-22T17:08:42.423Z,32.25
2019-04-22T17:11:11.981Z,32.46
2019-04-22T17:13:42.476Z,32.50
2019-04-22T17:16:15.670Z,33.00
2019-04-22T17:18:47.369Z,33.02
2019-04-22T17:21:17.573Z,33.20
2019-04-22T17:23:52.222Z,33.01
2019-04-22T17:26:24.337Z,33.46
2019-04-22T17:28:58.711Z,33.64
2019-04-22T17:31:28.955Z,33.87
2019-04-22T17:33:59.049Z,34.13
2019-04-22T17:36:29.796Z,34.40
2019-04-22T17:39:15.942Z,34.29
2019-04-22T17:41:50.614Z,34.34
2019-04-22T17:44:30.881Z,33.88
2019-04-22T17:47:01.356Z,34.13
2019-04-22T17:49:50.505Z,34.33
2019-04-22T17:52:21.841Z,33.92
2019-04-22T17:54:50.017Z,33.98
2019-04-22T17:57:24.092Z,34.02
2019-04-22T17:59:53.459Z,34.21
2019-04-22T18:02:25.190Z,33.94
2019-04-22T18:04:46.341Z,34.32
2019-04-22T18:10:23.943Z,34.91
2019-04-22T18:12:40.075Z,35.20
2019-04-22T18:15:20.942Z,35.45
2019-04-22T18:17:41.210Z,35.88
2019-04-22T18:20:04.624Z,35.99
2019-04-22T18:22:34.724Z,36.47
2019-04-22T18:25:04.957Z,36.67
2019-04-22T18:30:11.387Z,37.41
2019-04-22T18:32:43.812Z,37.80
2019-04-22T18:35:14.271Z,37.99
2019-04-22T18:37:50.022Z,38.41
2019-04-22T18:40:24.514Z,38.69
2019-04-22T18:43:00.202Z,39.00
2019-04-22T18:45:47.065Z,39.25
2019-04-22T18:47:55.524Z,39.53
2019-04-22T18:50:37.014Z,39.74
2019-04-22T18:53:13.095Z,40.10
2019-04-22T18:55:33.952Z,40.40
2019-04-22T18:58:11.995Z,40.67
2019-04-22T19:00:36.616Z,40.93
2019-04-22T19:03:16.000Z,41.22
2019-04-22T19:06:03.627Z,41.50
2019-04-22T19:08:31.518Z,41.77
2019-04-22T19:11:08.384Z,42.00
2019-04-22T19:16:29.083Z,42.47
2019-04-22T19:19:18.440Z,42.72
2019-04-22T19:21:12.460Z,43.15
2019-04-22T19:23:45.080Z,43.40
2019-04-22T19:26:20.606Z,43.60
2019-04-22T19:28:46.525Z,44.13
2019-04-22T19:31:19.365Z,44.24
2019-04-22T19:33:53.716Z,44.61
2019-04-22T19:36:23.779Z,44.95
2019-04-22T19:38:52.663Z,45.29
2019-04-22T19:41:35.155Z,45.51
2019-04-22T19:44:00.443Z,45.73
2019-04-22T19:46:28.116Z,45.96
2019-04-22T19:49:10.546Z,46.02
2019-04-22T19:51:50.876Z,46.20
2019-04-22T19:54:09.444Z,46.15
2019-04-22T19:56:27.825Z,45.97
2019-04-22T19:59:02.178Z,45.88
2019-04-22T20:01:47.494Z,45.88
2019-04-22T20:04:28.194Z,45.89
2019-04-22T20:06:53.954Z,45.47
2019-04-22T20:09:31.574Z,44.88
2019-04-22T20:12:01.140Z,44.52
2019-04-22T20:14:34.911Z,44.12
2019-04-22T20:16:59.864Z,44.17
2019-04-22T20:19:41.553Z,43.73
2019-04-22T20:22:02.994Z,43.63
2019-04-22T20:24:25.868Z,43.67
2019-04-22T20:27:13.641Z,43.56
2019-04-22T20:29:42.121Z,43.77
2019-04-22T20:32:10.835Z,43.64
2019-04-22T20:34:53.770Z,43.77
2019-04-22T20:37:22.305Z,43.85
2019-04-22T20:39:52.951Z,44.10
2019-04-22T20:42:43.619Z,44.47
2019-04-22T20:44:56.762Z,44.72
2019-04-22T20:47:23.749Z,44.82
2019-04-22T20:50:01.924Z,44.84
2019-04-22T20:52:45.156Z,44.80
2019-04-22T20:55:00.072Z,44.83
2019-04-22T20:57:34.817Z,45.24
2019-04-22T21:00:02.098Z,45.28
2019-04-22T21:02:31.284Z,45.29
2019-04-22T21:04:57.107Z,45.57
2019-04-22T21:07:31.367Z,45.65
2019-04-22T21:10:09.258Z,45.90
2019-04-22T21:12:34.041Z,45.96
2019-04-22T21:15:25.520Z,46.09
2019-04-22T21:17:45.904Z,46.25
2019-04-22T21:20:26.255Z,46.40
2019-04-22T21:22:55.195Z,46.41
2019-04-22T21:25:16.773Z,46.56
2019-04-22T21:27:59.804Z,46.61
2019-04-22T21:30:26.307Z,46.74
2019-04-22T21:32:58.185Z,46.66
2019-04-22T21:35:47.234Z,46.66
2019-04-22T21:38:06.117Z,46.81
2019-04-22T21:40:35.560Z,47.12
2019-04-22T21:43:10.700Z,47.44
2019-04-22T21:45:28.163Z,47.44
2019-04-22T21:57:48.912Z,48.01
2019-04-22T22:00:22.639Z,48.22
2019-04-22T22:03:17.047Z,48.46
2019-04-22T22:05:29.713Z,48.78
2019-04-22T22:08:23.125Z,49.00
2019-04-22T22:10:52.314Z,49.15
2019-04-22T22:13:44.498Z,49.30
2019-04-22T22:16:24.768Z,49.58
2019-04-22T22:19:05.508Z,49.59
2019-04-22T22:22:06.005Z,49.78
2019-04-22T22:24:43.877Z,49.74
2019-04-22T22:27:40.837Z,49.99
2019-04-22T22:33:10.937Z,50.27
2019-04-22T22:35:36.040Z,50.40
2019-04-22T22:40:58.375Z,50.64
2019-04-22T22:43:34.954Z,50.88
2019-04-22T22:46:29.238Z,50.99
2019-04-22T22:49:18.359Z,51.14
2019-04-22T22:52:03.117Z,51.29
2019-04-22T22:54:33.062Z,51.34
2019-04-22T22:57:17.939Z,51.42
2019-04-22T23:03:36.810Z,52.48
2019-04-22T23:05:55.388Z,52.48
2019-04-22T23:08:25.685Z,52.21
2019-04-22T23:11:07.104Z,52.37
2019-04-22T23:13:44.311Z,52.65
2019-04-22T23:16:10.326Z,52.73
2019-04-22T23:22:23.403Z,53.04
2019-04-22T23:25:35.138Z,53.18
2019-04-22T23:28:13.411Z,53.39
2019-04-22T23:31:14.341Z,53.71
2019-04-22T23:39:40.276Z,54.08
2019-04-22T23:42:27.352Z,54.24
2019-04-22T23:45:14.075Z,54.47
2019-04-22T23:47:47.435Z,54.52
2019-04-22T23:50:45.430Z,54.65
2019-04-22T23:53:47.442Z,54.82
2019-04-22T23:56:07.925Z,55.01
